sensor_id;sensor_type;location;lat;lon;timestamp;P1;durP1;ratioP1;P2;durP2;ratioP2
7843;SDS011;3967;48.702;9.326;2023-03-01T00:00:03;14.47;;;11.00;;
7843;SDS011;3967;48.702;9.326;2023-03-01T00:02:31;14.93;;;10.83;;
7843;SDS011;3967;48.702;9.326;2023-03-01T00:04:57;15.07;;;11.43;;
7843;SDS011;3967;48.702;9.326;2023-03-01T00:07:24;15.60;;;11.10;;
7843;SDS011;3967;48.702;9.326;2023-03-01T00:09:51;15.93;;;10.70;;
7843;SDS011;3967;48.702;9.326;2023-03-01T00:12:17;14.10;;;10.43;;
7843;SDS011;3967;48.702;9.326;2023-03-01T00:14:44;15.23;;;10.23;;
7843;SDS011;3967;48.702;9.326;2023-03-01T00:17:11;14.50;;;10.70;;
7843;SDS011;3967;48.702;9.326;2023-03-01T00:19:38;13.63;;;10.63;;
7843;SDS011;3967;48.702;9.326;2023-03-01T00:22:04;16.87;;;11.13;;
7843;SDS011;3967;48.702;9.326;2023-03-01T00:24:31;16.17;;;10.43;;
7843;SDS011;3967;48.702;9.326;2023-03-01T00:26:58;15.10;;;10.80;;
7843;SDS011;3967;48.702;9.326;2023-03-01T00:29:25;17.40;;;11.13;;
7843;SDS011;3967;48.702;9.326;2023-03-01T00:31:52;17.07;;;12.10;;
7843;SDS011;3967;48.702;9.326;2023-03-01T00:34:18;18.50;;;10.97;;
7843;SDS011;3967;48.702;9.326;2023-03-01T00:36:45;14.03;;;10.50;;
7843;SDS011;3967;48.702;9.326;2023-03-01T00:39:13;17.73;;;11.70;;
7843;SDS011;3967;48.702;9.326;2023-03-01T00:41:41;15.33;;;11.10;;
7843;SDS011;3967;48.702;9.326;2023-03-01T00:44:09;16.23;;;11.70;;
7843;SDS011;3967;48.702;9.326;2023-03-01T00:46:36;17.10;;;11.07;;
7843;SDS011;3967;48.702;9.326;2023-03-01T00:49:03;16.37;;;11.20;;
7843;SDS011;3967;48.702;9.326;2023-03-01T00:51:31;14.23;;;10.53;;
7843;SDS011;3967;48.702;9.326;2023-03-01T00:53:59;14.53;;;10.40;;
7843;SDS011;3967;48.702;9.326;2023-03-01T00:56:27;15.97;;;11.20;;
7843;SDS011;3967;48.702;9.326;2023-03-01T00:58:55;17.27;;;10.93;;
7843;SDS011;3967;48.702;9.326;2023-03-01T01:01:23;16.17;;;11.47;;
7843;SDS011;3967;48.702;9.326;2023-03-01T01:03:55;16.30;;;11.10;;
7843;SDS011;3967;48.702;9.326;2023-03-01T01:06:24;16.17;;;11.33;;
7843;SDS011;3967;48.702;9.326;2023-03-01T01:08:56;15.17;;;11.50;;
7843;SDS011;3967;48.702;9.326;2023-03-01T01:11:24;15.10;;;10.63;;
7843;SDS011;3967;48.702;9.326;2023-03-01T01:13:53;16.50;;;11.20;;
7843;SDS011;3967;48.702;9.326;2023-03-01T01:16:21;18.47;;;11.30;;
7843;SDS011;3967;48.702;9.326;2023-03-01T01:18:48;17.03;;;11.00;;
7843;SDS011;3967;48.702;9.326;2023-03-01T01:21:17;18.83;;;11.47;;
7843;SDS011;3967;48.702;9.326;2023-03-01T01:23:45;18.20;;;11.83;;
7843;SDS011;3967;48.702;9.326;2023-03-01T01:26:17;21.57;;;12.77;;
7843;SDS011;3967;48.702;9.326;2023-03-01T01:28:46;20.60;;;12.53;;
7843;SDS011;3967;48.702;9.326;2023-03-01T01:31:14;18.37;;;12.47;;
7843;SDS011;3967;48.702;9.326;2023-03-01T01:33:41;22.27;;;12.80;;
7843;SDS011;3967;48.702;9.326;2023-03-01T01:36:08;17.03;;;11.87;;
7843;SDS011;3967;48.702;9.326;2023-03-01T01:38:35;19.37;;;12.80;;
7843;SDS011;3967;48.702;9.326;2023-03-01T01:41:03;21.10;;;13.33;;
7843;SDS011;3967;48.702;9.326;2023-03-01T01:43:35;16.53;;;12.07;;
7843;SDS011;3967;48.702;9.326;2023-03-01T01:46:15;21.60;;;13.13;;
7843;SDS011;3967;48.702;9.326;2023-03-01T01:48:51;20.60;;;12.30;;
7843;SDS011;3967;48.702;9.326;2023-03-01T01:51:23;18.43;;;12.47;;
7843;SDS011;3967;48.702;9.326;2023-03-01T01:54:40;16.93;;;12.13;;
7843;SDS011;3967;48.702;9.326;2023-03-01T01:57:04;19.47;;;12.40;;
7843;SDS011;3967;48.702;9.326;2023-03-01T01:59:45;20.20;;;13.40;;
7843;SDS011;3967;48.702;9.326;2023-03-01T02:02:17;17.83;;;12.30;;
7843;SDS011;3967;48.702;9.326;2023-03-01T02:04:44;18.70;;;13.07;;
7843;SDS011;3967;48.702;9.326;2023-03-01T02:07:17;20.23;;;12.83;;
7843;SDS011;3967;48.702;9.326;2023-03-01T02:09:48;23.03;;;13.03;;
7843;SDS011;3967;48.702;9.326;2023-03-01T02:12:17;18.63;;;13.00;;
7843;SDS011;3967;48.702;9.326;2023-03-01T02:14:46;18.57;;;12.97;;
7843;SDS011;3967;48.702;9.326;2023-03-01T02:17:13;17.97;;;12.93;;
7843;SDS011;3967;48.702;9.326;2023-03-01T02:20:07;17.40;;;11.77;;
7843;SDS011;3967;48.702;9.326;2023-03-01T02:22:50;17.97;;;12.60;;
7843;SDS011;3967;48.702;9.326;2023-03-01T02:25:27;18.60;;;12.67;;
7843;SDS011;3967;48.702;9.326;2023-03-01T02:28:18;19.37;;;13.27;;
7843;SDS011;3967;48.702;9.326;2023-03-01T02:30:48;20.47;;;12.77;;
7843;SDS011;3967;48.702;9.326;2023-03-01T02:33:35;18.63;;;13.03;;
7843;SDS011;3967;48.702;9.326;2023-03-01T02:36:09;20.97;;;13.60;;
7843;SDS011;3967;48.702;9.326;2023-03-01T02:38:41;21.50;;;13.60;;
7843;SDS011;3967;48.702;9.326;2023-03-01T02:41:08;21.70;;;12.23;;
7843;SDS011;3967;48.702;9.326;2023-03-01T02:43:37;19.13;;;13.37;;
7843;SDS011;3967;48.702;9.326;2023-03-01T02:46:12;19.33;;;13.47;;
7843;SDS011;3967;48.702;9.326;2023-03-01T02:51:22;20.77;;;13.77;;
7843;SDS011;3967;48.702;9.326;2023-03-01T02:56:41;19.13;;;12.70;;
7843;SDS011;3967;48.702;9.326;2023-03-01T02:59:09;18.70;;;12.37;;
7843;SDS011;3967;48.702;9.326;2023-03-01T03:01:37;23.00;;;14.40;;
7843;SDS011;3967;48.702;9.326;2023-03-01T03:04:05;20.67;;;13.23;;
7843;SDS011;3967;48.702;9.326;2023-03-01T03:06:32;21.30;;;14.00;;
7843;SDS011;3967;48.702;9.326;2023-03-01T03:08:59;19.23;;;13.77;;
7843;SDS011;3967;48.702;9.326;2023-03-01T03:11:26;21.57;;;14.13;;
7843;SDS011;3967;48.702;9.326;2023-03-01T03:13:53;21.17;;;13.23;;
7843;SDS011;3967;48.702;9.326;2023-03-01T03:16:22;20.30;;;14.03;;
7843;SDS011;3967;48.702;9.326;2023-03-01T03:18:48;22.27;;;14.17;;
7843;SDS011;3967;48.702;9.326;2023-03-01T03:21:15;21.97;;;14.60;;
7843;SDS011;3967;48.702;9.326;2023-03-01T03:23:43;20.53;;;14.17;;
7843;SDS011;3967;48.702;9.326;2023-03-01T03:26:10;22.57;;;13.20;;
7843;SDS011;3967;48.702;9.326;2023-03-01T03:28:39;22.30;;;14.03;;
7843;SDS011;3967;48.702;9.326;2023-03-01T03:31:06;23.93;;;14.33;;
7843;SDS011;3967;48.702;9.326;2023-03-01T03:33:34;22.07;;;14.23;;
7843;SDS011;3967;48.702;9.326;2023-03-01T03:36:01;19.70;;;13.80;;
7843;SDS011;3967;48.702;9.326;2023-03-01T03:38:27;22.87;;;14.17;;
7843;SDS011;3967;48.702;9.326;2023-03-01T03:41:01;25.80;;;14.43;;
7843;SDS011;3967;48.702;9.326;2023-03-01T03:43:31;23.33;;;13.80;;
7843;SDS011;3967;48.702;9.326;2023-03-01T03:45:59;24.40;;;14.07;;
7843;SDS011;3967;48.702;9.326;2023-03-01T03:48:26;21.07;;;14.37;;
7843;SDS011;3967;48.702;9.326;2023-03-01T03:50:54;21.67;;;13.93;;
7843;SDS011;3967;48.702;9.326;2023-03-01T03:53:22;21.83;;;14.40;;
7843;SDS011;3967;48.702;9.326;2023-03-01T03:55:51;21.23;;;13.73;;
7843;SDS011;3967;48.702;9.326;2023-03-01T03:58:18;22.70;;;14.97;;
7843;SDS011;3967;48.702;9.326;2023-03-01T04:00:48;22.60;;;13.90;;
7843;SDS011;3967;48.702;9.326;2023-03-01T04:03:18;20.43;;;14.00;;
7843;SDS011;3967;48.702;9.326;2023-03-01T04:05:46;24.37;;;14.97;;
7843;SDS011;3967;48.702;9.326;2023-03-01T04:08:13;23.53;;;14.40;;
7843;SDS011;3967;48.702;9.326;2023-03-01T04:10:41;22.93;;;14.20;;
7843;SDS011;3967;48.702;9.326;2023-03-01T04:13:10;24.33;;;14.67;;
7843;SDS011;3967;48.702;9.326;2023-03-01T04:15:38;24.47;;;14.90;;
7843;SDS011;3967;48.702;9.326;2023-03-01T04:18:06;20.47;;;14.07;;
7843;SDS011;3967;48.702;9.326;2023-03-01T04:20:34;22.30;;;14.50;;
7843;SDS011;3967;48.702;9.326;2023-03-01T04:23:05;21.17;;;13.63;;
7843;SDS011;3967;48.702;9.326;2023-03-01T04:25:38;22.80;;;15.23;;
7843;SDS011;3967;48.702;9.326;2023-03-01T04:28:05;24.53;;;15.67;;
7843;SDS011;3967;48.702;9.326;2023-03-01T04:30:32;21.43;;;14.67;;
7843;SDS011;3967;48.702;9.326;2023-03-01T04:33:05;24.40;;;13.87;;
7843;SDS011;3967;48.702;9.326;2023-03-01T04:35:33;21.23;;;14.73;;
7843;SDS011;3967;48.702;9.326;2023-03-01T04:38:00;24.30;;;14.93;;
7843;SDS011;3967;48.702;9.326;2023-03-01T04:40:27;20.13;;;14.07;;
7843;SDS011;3967;48.702;9.326;2023-03-01T04:42:55;20.47;;;14.77;;
7843;SDS011;3967;48.702;9.326;2023-03-01T04:45:22;24.27;;;15.37;;
7843;SDS011;3967;48.702;9.326;2023-03-01T04:47:49;23.40;;;15.20;;
7843;SDS011;3967;48.702;9.326;2023-03-01T04:50:18;23.20;;;15.47;;
7843;SDS011;3967;48.702;9.326;2023-03-01T04:52:49;22.40;;;15.43;;
7843;SDS011;3967;48.702;9.326;2023-03-01T04:55:16;21.30;;;14.87;;
7843;SDS011;3967;48.702;9.326;2023-03-01T04:57:43;24.10;;;15.53;;
7843;SDS011;3967;48.702;9.326;2023-03-01T05:00:10;24.47;;;15.00;;
7843;SDS011;3967;48.702;9.326;2023-03-01T05:02:52;22.40;;;14.93;;
7843;SDS011;3967;48.702;9.326;2023-03-01T05:05:28;21.53;;;15.27;;
7843;SDS011;3967;48.702;9.326;2023-03-01T05:08:00;24.03;;;15.70;;
7843;SDS011;3967;48.702;9.326;2023-03-01T05:10:30;22.47;;;15.00;;
7843;SDS011;3967;48.702;9.326;2023-03-01T05:12:59;21.83;;;14.93;;
7843;SDS011;3967;48.702;9.326;2023-03-01T05:15:26;23.10;;;14.43;;
7843;SDS011;3967;48.702;9.326;2023-03-01T05:17:56;24.70;;;15.70;;
7843;SDS011;3967;48.702;9.326;2023-03-01T05:20:25;25.03;;;13.67;;
7843;SDS011;3967;48.702;9.326;2023-03-01T05:22:55;23.07;;;15.57;;
7843;SDS011;3967;48.702;9.326;2023-03-01T05:25:25;22.57;;;14.90;;
7843;SDS011;3967;48.702;9.326;2023-03-01T05:27:52;22.93;;;15.27;;
7843;SDS011;3967;48.702;9.326;2023-03-01T05:30:19;24.67;;;15.37;;
7843;SDS011;3967;48.702;9.326;2023-03-01T05:32:47;22.03;;;15.93;;
7843;SDS011;3967;48.702;9.326;2023-03-01T05:35:16;25.23;;;15.30;;
7843;SDS011;3967;48.702;9.326;2023-03-01T05:37:45;23.43;;;14.80;;
7843;SDS011;3967;48.702;9.326;2023-03-01T05:40:15;23.53;;;15.27;;
7843;SDS011;3967;48.702;9.326;2023-03-01T05:42:44;23.80;;;15.37;;
7843;SDS011;3967;48.702;9.326;2023-03-01T05:45:13;22.70;;;14.57;;
7843;SDS011;3967;48.702;9.326;2023-03-01T05:47:41;24.63;;;16.07;;
7843;SDS011;3967;48.702;9.326;2023-03-01T05:50:22;24.93;;;16.90;;
7843;SDS011;3967;48.702;9.326;2023-03-01T05:53:01;21.93;;;14.83;;
7843;SDS011;3967;48.702;9.326;2023-03-01T05:55:29;23.83;;;15.47;;
7843;SDS011;3967;48.702;9.326;2023-03-01T05:58:03;25.37;;;15.27;;
7843;SDS011;3967;48.702;9.326;2023-03-01T06:00:32;23.23;;;15.63;;
7843;SDS011;3967;48.702;9.326;2023-03-01T06:03:01;23.50;;;16.10;;
7843;SDS011;3967;48.702;9.326;2023-03-01T06:05:28;24.27;;;15.70;;
7843;SDS011;3967;48.702;9.326;2023-03-01T06:08:00;23.47;;;15.13;;
7843;SDS011;3967;48.702;9.326;2023-03-01T06:10:27;19.70;;;15.10;;
7843;SDS011;3967;48.702;9.326;2023-03-01T06:12:55;23.77;;;15.10;;
7843;SDS011;3967;48.702;9.326;2023-03-01T06:15:22;24.27;;;16.43;;
7843;SDS011;3967;48.702;9.326;2023-03-01T06:17:49;24.37;;;16.40;;
7843;SDS011;3967;48.702;9.326;2023-03-01T06:20:20;25.27;;;15.63;;
7843;SDS011;3967;48.702;9.326;2023-03-01T06:22:48;21.80;;;14.87;;
7843;SDS011;3967;48.702;9.326;2023-03-01T06:25:16;26.43;;;15.20;;
7843;SDS011;3967;48.702;9.326;2023-03-01T06:27:44;25.37;;;16.80;;
7843;SDS011;3967;48.702;9.326;2023-03-01T06:30:12;22.73;;;15.07;;
7843;SDS011;3967;48.702;9.326;2023-03-01T06:32:40;25.03;;;15.67;;
7843;SDS011;3967;48.702;9.326;2023-03-01T06:35:10;25.77;;;15.70;;
7843;SDS011;3967;48.702;9.326;2023-03-01T06:37:38;22.37;;;14.93;;
7843;SDS011;3967;48.702;9.326;2023-03-01T06:40:06;23.73;;;15.57;;
7843;SDS011;3967;48.702;9.326;2023-03-01T06:42:38;24.00;;;15.33;;
7843;SDS011;3967;48.702;9.326;2023-03-01T06:45:06;25.03;;;15.53;;
7843;SDS011;3967;48.702;9.326;2023-03-01T06:47:34;25.43;;;16.00;;
7843;SDS011;3967;48.702;9.326;2023-03-01T06:50:01;24.23;;;15.53;;
7843;SDS011;3967;48.702;9.326;2023-03-01T06:52:29;22.23;;;14.80;;
7843;SDS011;3967;48.702;9.326;2023-03-01T06:54:55;23.67;;;14.97;;
7843;SDS011;3967;48.702;9.326;2023-03-01T06:57:22;24.23;;;16.30;;
7843;SDS011;3967;48.702;9.326;2023-03-01T06:59:49;25.40;;;15.40;;
7843;SDS011;3967;48.702;9.326;2023-03-01T07:02:16;26.87;;;16.23;;
7843;SDS011;3967;48.702;9.326;2023-03-01T07:04:43;24.17;;;15.40;;
7843;SDS011;3967;48.702;9.326;2023-03-01T07:07:10;25.03;;;15.80;;
7843;SDS011;3967;48.702;9.326;2023-03-01T07:09:37;23.73;;;15.37;;
7843;SDS011;3967;48.702;9.326;2023-03-01T07:12:04;26.27;;;16.10;;
7843;SDS011;3967;48.702;9.326;2023-03-01T07:14:31;26.13;;;17.43;;
7843;SDS011;3967;48.702;9.326;2023-03-01T07:16:58;23.03;;;15.80;;
7843;SDS011;3967;48.702;9.326;2023-03-01T07:19:24;23.80;;;15.63;;
7843;SDS011;3967;48.702;9.326;2023-03-01T07:21:51;22.87;;;15.10;;
7843;SDS011;3967;48.702;9.326;2023-03-01T07:24:18;22.83;;;14.90;;
7843;SDS011;3967;48.702;9.326;2023-03-01T07:26:47;22.50;;;15.60;;
7843;SDS011;3967;48.702;9.326;2023-03-01T07:29:15;26.20;;;15.87;;
7843;SDS011;3967;48.702;9.326;2023-03-01T07:31:43;23.67;;;16.20;;
7843;SDS011;3967;48.702;9.326;2023-03-01T07:34:10;23.00;;;15.13;;
7843;SDS011;3967;48.702;9.326;2023-03-01T07:36:37;22.43;;;15.93;;
7843;SDS011;3967;48.702;9.326;2023-03-01T07:39:05;22.83;;;15.10;;
7843;SDS011;3967;48.702;9.326;2023-03-01T07:41:32;20.57;;;14.17;;
7843;SDS011;3967;48.702;9.326;2023-03-01T07:43:59;24.70;;;16.50;;
7843;SDS011;3967;48.702;9.326;2023-03-01T07:46:26;22.13;;;15.93;;
7843;SDS011;3967;48.702;9.326;2023-03-01T07:48:53;22.30;;;15.70;;
7843;SDS011;3967;48.702;9.326;2023-03-01T07:51:19;21.40;;;14.93;;
7843;SDS011;3967;48.702;9.326;2023-03-01T07:53:47;26.37;;;15.43;;
7843;SDS011;3967;48.702;9.326;2023-03-01T07:56:14;26.23;;;15.50;;
7843;SDS011;3967;48.702;9.326;2023-03-01T07:58:45;24.77;;;15.47;;
7843;SDS011;3967;48.702;9.326;2023-03-01T08:01:15;21.87;;;15.77;;
7843;SDS011;3967;48.702;9.326;2023-03-01T08:03:43;25.17;;;16.27;;
7843;SDS011;3967;48.702;9.326;2023-03-01T08:06:11;23.07;;;15.73;;
7843;SDS011;3967;48.702;9.326;2023-03-01T08:08:39;22.23;;;15.03;;
7843;SDS011;3967;48.702;9.326;2023-03-01T08:11:06;25.17;;;15.30;;
7843;SDS011;3967;48.702;9.326;2023-03-01T08:13:34;23.80;;;15.73;;
7843;SDS011;3967;48.702;9.326;2023-03-01T08:16:10;21.03;;;14.87;;
7843;SDS011;3967;48.702;9.326;2023-03-01T08:18:39;21.17;;;14.10;;
7843;SDS011;3967;48.702;9.326;2023-03-01T08:21:07;21.70;;;15.37;;
7843;SDS011;3967;48.702;9.326;2023-03-01T08:23:35;24.70;;;15.90;;
7843;SDS011;3967;48.702;9.326;2023-03-01T08:26:09;21.20;;;16.13;;
7843;SDS011;3967;48.702;9.326;2023-03-01T08:28:39;22.30;;;15.73;;
7843;SDS011;3967;48.702;9.326;2023-03-01T08:31:22;24.93;;;16.10;;
7843;SDS011;3967;48.702;9.326;2023-03-01T08:33:52;23.97;;;15.53;;
7843;SDS011;3967;48.702;9.326;2023-03-01T08:36:24;22.90;;;15.67;;
7843;SDS011;3967;48.702;9.326;2023-03-01T08:38:52;21.30;;;14.67;;
7843;SDS011;3967;48.702;9.326;2023-03-01T08:41:19;22.57;;;15.07;;
7843;SDS011;3967;48.702;9.326;2023-03-01T08:43:46;19.67;;;14.87;;
7843;SDS011;3967;48.702;9.326;2023-03-01T08:46:13;25.23;;;16.00;;
7843;SDS011;3967;48.702;9.326;2023-03-01T08:48:40;22.47;;;15.10;;
7843;SDS011;3967;48.702;9.326;2023-03-01T08:53:37;23.13;;;15.93;;
7843;SDS011;3967;48.702;9.326;2023-03-01T08:56:04;23.53;;;15.77;;
7843;SDS011;3967;48.702;9.326;2023-03-01T08:58:31;22.50;;;15.17;;
7843;SDS011;3967;48.702;9.326;2023-03-01T09:00:58;21.20;;;14.03;;
7843;SDS011;3967;48.702;9.326;2023-03-01T09:03:25;20.60;;;15.00;;
7843;SDS011;3967;48.702;9.326;2023-03-01T09:05:53;21.83;;;15.13;;
7843;SDS011;3967;48.702;9.326;2023-03-01T09:08:25;24.40;;;14.00;;
7843;SDS011;3967;48.702;9.326;2023-03-01T09:10:52;24.30;;;15.77;;
7843;SDS011;3967;48.702;9.326;2023-03-01T09:13:19;22.67;;;15.30;;
7843;SDS011;3967;48.702;9.326;2023-03-01T09:15:45;20.93;;;14.07;;
7843;SDS011;3967;48.702;9.326;2023-03-01T09:18:12;23.47;;;15.60;;
7843;SDS011;3967;48.702;9.326;2023-03-01T09:20:38;23.03;;;16.37;;
7843;SDS011;3967;48.702;9.326;2023-03-01T09:23:05;22.90;;;15.67;;
7843;SDS011;3967;48.702;9.326;2023-03-01T09:25:33;22.83;;;13.77;;
7843;SDS011;3967;48.702;9.326;2023-03-01T09:28:00;17.93;;;14.13;;
7843;SDS011;3967;48.702;9.326;2023-03-01T09:30:27;24.70;;;14.27;;
7843;SDS011;3967;48.702;9.326;2023-03-01T09:32:55;19.77;;;14.67;;
7843;SDS011;3967;48.702;9.326;2023-03-01T09:35:22;21.20;;;14.93;;
7843;SDS011;3967;48.702;9.326;2023-03-01T09:37:49;21.13;;;14.57;;
7843;SDS011;3967;48.702;9.326;2023-03-01T09:40:18;20.43;;;14.17;;
7843;SDS011;3967;48.702;9.326;2023-03-01T09:43:14;20.23;;;14.27;;
7843;SDS011;3967;48.702;9.326;2023-03-01T09:45:43;23.60;;;14.80;;
7843;SDS011;3967;48.702;9.326;2023-03-01T09:48:14;25.77;;;15.80;;
7843;SDS011;3967;48.702;9.326;2023-03-01T09:50:44;18.57;;;13.87;;
7843;SDS011;3967;48.702;9.326;2023-03-01T09:53:17;23.20;;;14.73;;
7843;SDS011;3967;48.702;9.326;2023-03-01T09:55:58;21.03;;;14.97;;
7843;SDS011;3967;48.702;9.326;2023-03-01T09:58:51;23.80;;;15.23;;
7843;SDS011;3967;48.702;9.326;2023-03-01T10:02:00;22.77;;;14.93;;
7843;SDS011;3967;48.702;9.326;2023-03-01T10:04:48;21.63;;;15.17;;
7843;SDS011;3967;48.702;9.326;2023-03-01T10:10:04;22.30;;;15.63;;
7843;SDS011;3967;48.702;9.326;2023-03-01T10:12:50;21.23;;;15.33;;
7843;SDS011;3967;48.702;9.326;2023-03-01T10:15:18;22.40;;;14.93;;
7843;SDS011;3967;48.702;9.326;2023-03-01T10:18:02;20.10;;;13.53;;
7843;SDS011;3967;48.702;9.326;2023-03-01T10:20:38;20.67;;;14.00;;
7843;SDS011;3967;48.702;9.326;2023-03-01T10:23:18;21.40;;;14.27;;
7843;SDS011;3967;48.702;9.326;2023-03-01T10:31:39;23.70;;;15.63;;
7843;SDS011;3967;48.702;9.326;2023-03-01T10:34:17;19.63;;;13.60;;
7843;SDS011;3967;48.702;9.326;2023-03-01T10:36:48;21.37;;;14.63;;
7843;SDS011;3967;48.702;9.326;2023-03-01T10:39:21;22.83;;;15.23;;
7843;SDS011;3967;48.702;9.326;2023-03-01T10:47:04;21.30;;;14.37;;
7843;SDS011;3967;48.702;9.326;2023-03-01T10:49:31;21.57;;;14.93;;
7843;SDS011;3967;48.702;9.326;2023-03-01T10:51:57;23.50;;;14.60;;
7843;SDS011;3967;48.702;9.326;2023-03-01T10:54:49;17.83;;;13.90;;
7843;SDS011;3967;48.702;9.326;2023-03-01T10:57:27;21.33;;;13.97;;
7843;SDS011;3967;48.702;9.326;2023-03-01T11:00:16;23.93;;;14.93;;
7843;SDS011;3967;48.702;9.326;2023-03-01T11:02:49;19.40;;;13.80;;
7843;SDS011;3967;48.702;9.326;2023-03-01T11:05:21;19.40;;;13.47;;
7843;SDS011;3967;48.702;9.326;2023-03-01T11:07:57;18.30;;;13.80;;
7843;SDS011;3967;48.702;9.326;2023-03-01T11:10:32;20.07;;;14.13;;
7843;SDS011;3967;48.702;9.326;2023-03-01T11:15:44;18.27;;;13.57;;
7843;SDS011;3967;48.702;9.326;2023-03-01T11:18:29;18.93;;;13.87;;
7843;SDS011;3967;48.702;9.326;2023-03-01T11:21:12;18.27;;;12.97;;
7843;SDS011;3967;48.702;9.326;2023-03-01T11:23:40;20.87;;;14.97;;
7843;SDS011;3967;48.702;9.326;2023-03-01T11:26:10;19.63;;;13.60;;
7843;SDS011;3967;48.702;9.326;2023-03-01T11:28:39;19.23;;;13.90;;
7843;SDS011;3967;48.702;9.326;2023-03-01T11:31:09;17.17;;;13.60;;
7843;SDS011;3967;48.702;9.326;2023-03-01T11:33:47;21.73;;;13.80;;
7843;SDS011;3967;48.702;9.326;2023-03-01T11:36:30;19.30;;;13.50;;
7843;SDS011;3967;48.702;9.326;2023-03-01T11:39:03;19.73;;;13.43;;
7843;SDS011;3967;48.702;9.326;2023-03-01T11:41:39;18.50;;;12.80;;
7843;SDS011;3967;48.702;9.326;2023-03-01T11:44:12;21.60;;;13.87;;
7843;SDS011;3967;48.702;9.326;2023-03-01T12:01:10;18.30;;;13.73;;
7843;SDS011;3967;48.702;9.326;2023-03-01T12:06:56;17.47;;;12.93;;
7843;SDS011;3967;48.702;9.326;2023-03-01T12:09:33;18.80;;;12.80;;
7843;SDS011;3967;48.702;9.326;2023-03-01T12:18:07;18.73;;;13.60;;
7843;SDS011;3967;48.702;9.326;2023-03-01T12:20:54;17.10;;;12.47;;
7843;SDS011;3967;48.702;9.326;2023-03-01T12:26:39;17.73;;;12.43;;
7843;SDS011;3967;48.702;9.326;2023-03-01T12:37:47;16.73;;;13.40;;
7843;SDS011;3967;48.702;9.326;2023-03-01T12:45:48;16.73;;;12.03;;
7843;SDS011;3967;48.702;9.326;2023-03-01T12:51:31;16.83;;;12.40;;
7843;SDS011;3967;48.702;9.326;2023-03-01T12:54:02;17.23;;;13.00;;
7843;SDS011;3967;48.702;9.326;2023-03-01T12:56:37;17.00;;;13.23;;
7843;SDS011;3967;48.702;9.326;2023-03-01T13:01:45;17.30;;;13.20;;
7843;SDS011;3967;48.702;9.326;2023-03-01T13:04:35;16.57;;;13.57;;
7843;SDS011;3967;48.702;9.326;2023-03-01T13:20:34;18.70;;;12.83;;
7843;SDS011;3967;48.702;9.326;2023-03-01T13:31:04;18.37;;;13.80;;
7843;SDS011;3967;48.702;9.326;2023-03-01T13:33:37;19.60;;;12.83;;
7843;SDS011;3967;48.702;9.326;2023-03-01T13:36:08;17.37;;;12.93;;
7843;SDS011;3967;48.702;9.326;2023-03-01T13:46:45;21.83;;;12.97;;
7843;SDS011;3967;48.702;9.326;2023-03-01T13:49:14;17.77;;;12.73;;
7843;SDS011;3967;48.702;9.326;2023-03-01T13:51:47;16.17;;;12.50;;
7843;SDS011;3967;48.702;9.326;2023-03-01T13:54:16;16.47;;;12.37;;
7843;SDS011;3967;48.702;9.326;2023-03-01T13:56:57;14.50;;;11.30;;
7843;SDS011;3967;48.702;9.326;2023-03-01T13:59:26;15.23;;;11.43;;
7843;SDS011;3967;48.702;9.326;2023-03-01T14:01:54;16.20;;;11.53;;
7843;SDS011;3967;48.702;9.326;2023-03-01T14:04:29;13.97;;;11.13;;
7843;SDS011;3967;48.702;9.326;2023-03-01T14:10:00;15.23;;;11.13;;
7843;SDS011;3967;48.702;9.326;2023-03-01T14:12:45;15.90;;;11.10;;
7843;SDS011;3967;48.702;9.326;2023-03-01T14:20:39;14.27;;;10.73;;
7843;SDS011;3967;48.702;9.326;2023-03-01T14:23:13;15.93;;;11.40;;
7843;SDS011;3967;48.702;9.326;2023-03-01T14:25:50;15.37;;;11.87;;
7843;SDS011;3967;48.702;9.326;2023-03-01T14:28:24;16.83;;;12.50;;
7843;SDS011;3967;48.702;9.326;2023-03-01T14:30:54;17.43;;;12.63;;
7843;SDS011;3967;48.702;9.326;2023-03-01T14:36:08;16.27;;;11.50;;
7843;SDS011;3967;48.702;9.326;2023-03-01T14:41:09;15.67;;;10.87;;
7843;SDS011;3967;48.702;9.326;2023-03-01T14:44:00;14.30;;;11.40;;
7843;SDS011;3967;48.702;9.326;2023-03-01T14:46:36;14.10;;;10.87;;
7843;SDS011;3967;48.702;9.326;2023-03-01T14:51:39;17.13;;;12.63;;
7843;SDS011;3967;48.702;9.326;2023-03-01T14:54:24;17.73;;;12.37;;
7843;SDS011;3967;48.702;9.326;2023-03-01T14:57:14;16.70;;;12.53;;
7843;SDS011;3967;48.702;9.326;2023-03-01T14:59:42;15.27;;;11.50;;
7843;SDS011;3967;48.702;9.326;2023-03-01T15:02:13;16.57;;;12.17;;
7843;SDS011;3967;48.702;9.326;2023-03-01T15:04:45;16.37;;;12.50;;
7843;SDS011;3967;48.702;9.326;2023-03-01T15:07:20;17.20;;;12.60;;
7843;SDS011;3967;48.702;9.326;2023-03-01T15:09:55;15.70;;;12.73;;
7843;SDS011;3967;48.702;9.326;2023-03-01T15:14:55;17.67;;;12.03;;
7843;SDS011;3967;48.702;9.326;2023-03-01T15:17:34;15.03;;;11.60;;
7843;SDS011;3967;48.702;9.326;2023-03-01T15:20:05;21.87;;;12.40;;
7843;SDS011;3967;48.702;9.326;2023-03-01T15:22:45;15.13;;;11.63;;
7843;SDS011;3967;48.702;9.326;2023-03-01T15:25:15;16.67;;;13.00;;
7843;SDS011;3967;48.702;9.326;2023-03-01T15:27:47;16.53;;;12.17;;
7843;SDS011;3967;48.702;9.326;2023-03-01T15:30:20;17.40;;;12.47;;
7843;SDS011;3967;48.702;9.326;2023-03-01T15:35:49;17.63;;;12.20;;
7843;SDS011;3967;48.702;9.326;2023-03-01T15:38:30;15.00;;;11.33;;
7843;SDS011;3967;48.702;9.326;2023-03-01T15:41:24;14.30;;;11.20;;
7843;SDS011;3967;48.702;9.326;2023-03-01T15:43:53;16.33;;;11.30;;
7843;SDS011;3967;48.702;9.326;2023-03-01T15:46:26;18.93;;;12.50;;
7843;SDS011;3967;48.702;9.326;2023-03-01T15:52:29;13.63;;;10.50;;
7843;SDS011;3967;48.702;9.326;2023-03-01T15:55:04;14.23;;;10.90;;
7843;SDS011;3967;48.702;9.326;2023-03-01T15:57:33;14.57;;;11.47;;
7843;SDS011;3967;48.702;9.326;2023-03-01T15:59:59;18.50;;;11.70;;
7843;SDS011;3967;48.702;9.326;2023-03-01T16:02:27;19.33;;;12.27;;
7843;SDS011;3967;48.702;9.326;2023-03-01T16:04:54;15.33;;;11.47;;
7843;SDS011;3967;48.702;9.326;2023-03-01T16:07:22;14.03;;;10.57;;
7843;SDS011;3967;48.702;9.326;2023-03-01T16:09:49;15.20;;;11.30;;
7843;SDS011;3967;48.702;9.326;2023-03-01T16:12:16;16.90;;;11.53;;
7843;SDS011;3967;48.702;9.326;2023-03-01T16:14:42;15.13;;;11.33;;
7843;SDS011;3967;48.702;9.326;2023-03-01T16:17:09;16.77;;;11.43;;
7843;SDS011;3967;48.702;9.326;2023-03-01T16:19:37;16.77;;;12.20;;
7843;SDS011;3967;48.702;9.326;2023-03-01T16:22:04;18.83;;;12.63;;
7843;SDS011;3967;48.702;9.326;2023-03-01T16:24:31;15.40;;;11.80;;
7843;SDS011;3967;48.702;9.326;2023-03-01T16:26:57;16.80;;;13.10;;
7843;SDS011;3967;48.702;9.326;2023-03-01T16:29:24;18.30;;;13.77;;
7843;SDS011;3967;48.702;9.326;2023-03-01T16:31:52;19.57;;;13.40;;
7843;SDS011;3967;48.702;9.326;2023-03-01T16:34:19;18.97;;;13.97;;
7843;SDS011;3967;48.702;9.326;2023-03-01T16:36:47;18.50;;;13.70;;
7843;SDS011;3967;48.702;9.326;2023-03-01T16:39:15;20.50;;;13.37;;
7843;SDS011;3967;48.702;9.326;2023-03-01T16:41:42;18.23;;;14.47;;
7843;SDS011;3967;48.702;9.326;2023-03-01T16:44:09;18.40;;;13.80;;
7843;SDS011;3967;48.702;9.326;2023-03-01T16:46:36;18.57;;;13.13;;
7843;SDS011;3967;48.702;9.326;2023-03-01T16:49:03;18.53;;;13.67;;
7843;SDS011;3967;48.702;9.326;2023-03-01T16:51:29;18.43;;;13.63;;
7843;SDS011;3967;48.702;9.326;2023-03-01T16:53:57;18.87;;;14.03;;
7843;SDS011;3967;48.702;9.326;2023-03-01T16:56:23;18.00;;;13.07;;
7843;SDS011;3967;48.702;9.326;2023-03-01T16:58:50;18.43;;;14.00;;
7843;SDS011;3967;48.702;9.326;2023-03-01T17:01:18;19.50;;;13.63;;
7843;SDS011;3967;48.702;9.326;2023-03-01T17:03:46;20.67;;;14.07;;
7843;SDS011;3967;48.702;9.326;2023-03-01T17:06:15;21.87;;;13.67;;
7843;SDS011;3967;48.702;9.326;2023-03-01T17:08:46;20.87;;;13.40;;
7843;SDS011;3967;48.702;9.326;2023-03-01T17:11:15;19.03;;;13.97;;
7843;SDS011;3967;48.702;9.326;2023-03-01T17:13:43;22.90;;;13.33;;